Tiempo atmosférico en la estación meteorológica de Mutriku, Gipuzkoa (150 m.)



Fecha
DESCASC
Temp. máxima en grados centígrados (hora)
DESCASC
Temp. mínima en grados centígrados (hora)
DESCASC
Temp. media en grados centígrados
DESCASC
Racha de viento máxima en m/sg (hora)
DESCASC
Velocidad máxima media en intervalos de 10 minutos(hora)
DESCASC
Precipitaciones diarias en mm
DESCASC
Precipitaciones de 00:00 a 06:00 en mm
DESCASC
Precipitaciones de 06:00 a 12:00 en mm
DESCASC
Precipitaciones de 12:00 a 18:00 en mm
DESCASC
Precipitaciones de 18:00 a 24:00 en mm
DESCASC
22-04-2019 17.8 (15:40) 11.6 (07:40) 14.7 8.61 (23:40) 4.17 (19:00) 0 0 0 0 0
21-04-2019 15.7 (16:40) 10.9 (07:30) 13.3 5 (04:20) 3.61 (01:00) 0 0 0 0 0
20-04-2019 15.5 (15:50) 11.6 (07:10) 13.6 8.06 (11:40) 5 (11:50) 0 0 0 0 0
19-04-2019 20.2 (13:40) 11.6 (03:30) 15.9 4.44 (15:00) 2.78 (15:00) 0 0 0 0 0
18-04-2019 20.2 (00:00) 12.5 (00:00) 16.4 15.28 (00:10) 8.33 (00:10) 0.2 0 0 0.2 0
17-04-2019 21.5 (15:40) 12 (00:00) 16.8 15.83 (23:59) 6.94 (12:00) 0 0 0 0 0
16-04-2019 16.7 (16:20) 9.9 (00:00) 13.3 8.61 (01:30) 5.28 (01:40) 0 0 0 0 0
15-04-2019 24.6 (16:30) 11.5 (00:00) 18.1 15 (17:00) 9.44 (19:10) 9.8 0 0 5.2 4.6
14-04-2019 16.2 (14:10) 11.1 (00:00) 13.7 4.72 (22:40) 3.33 (18:00) 0 0 0 0 0
13-04-2019 16.7 (17:50) 7.8 (00:00) 12.3 6.11 (13:40) 3.89 (13:20) 0 0 0 0 0
12-04-2019 14.5 (15:50) 8.3 (00:00) 11.4 8.89 (01:20) 4.72 (01:00) 0 0 0 0 0
11-04-2019 12.5 (17:20) 8.8 (00:00) 10.7 9.44 (14:50) 5.83 (14:50) 6 4.8 1 0.2 0
10-04-2019 11.3 (18:50) 7.9 (00:00) 9.6 8.33 (22:40) 5.28 (23:00) 21.2 0 0.8 19.6 0.8
09-04-2019 17.2 (14:20) 8.7 (00:00) 13 12.5 (19:20) 7.22 (20:00) 4.2 0 0 1 3.2
08-04-2019 14.3 (19:30) 9.6 (00:00) 12 11.39 (05:20) 6.94 (05:20) 1.4 0 0.8 0.6 0
07-04-2019 14.5 (18:20) 6.8 (00:00) 10.7 14.17 (11:10) 7.78 (11:10) 0.4 0.4 0 0 0
06-04-2019 15.5 (16:50) 6.8 (00:00) 11.2 12.78 (14:00) 7.22 (13:50) 7.4 2.6 0 0 4.8
05-04-2019 15.5 (14:20) 7.5 (00:00) 11.5 12.5 (01:00) 5.83 (00:30) 3.2 0 0 0.6 2.6
04-04-2019 13.5 (15:20) 2.4 (00:00) 8 16.11 (04:50) 10.28 (04:50) 4.8 3.6 1.2 0 0
03-04-2019 9 (13:40) 3.1 (00:00) 6 17.78 (14:20) 10.83 (15:20) 10 0.8 2.8 1.8 4.6
02-04-2019 14.4 (12:10) 8.6 (00:00) 11.5 11.67 (15:40) 6.39 (15:50) 1.8 0 0 0 1.8
01-04-2019 14.6 (15:40) 10 (00:00) 12.3 9.44 (03:30) 4.72 (04:20) 4.4 1.8 2.4 0.2 0
31-03-2019 19.4 (14:10) 10.7 (00:00) 15 5.28 (16:10) 3.33 (17:30) 0 0 0 0 0
30-03-2019 21.7 (14:20) 13 (00:00) 17.4 16.39 (00:40) 6.67 (06:40) 0 0 0 0 0
29-03-2019 17.2 (21:20) 8.1 (00:00) 12.7 15 (23:40) 5.83 (23:59) 0 0 0 0 0
28-03-2019 13.8 (14:40) 8.1 (00:00) 11 5.56 (00:10) 3.89 (23:59) 0 0 0 0 0
27-03-2019 12.7 (15:40) 6.9 (00:00) 9.8 7.78 (01:20) 3.89 (23:30) 0 0 0 0 0

Gráficas

Temp. máximas Temp. mínimas Temp. medias Precipitaciones Rachas de viento máximas Velocidades máximas media en intervalos de 10 minutos

Datos horarios

Fecha y hora oficial Temperatura (ºC) Velocidad del viento (km/h) Dirección del viento Racha (km/h) Dirección de racha Precipitación (mm) Presión (hPa) Tendencia (hPa) Humedad (%)
2019-04-25 23:00:00 11.8 19 Oeste 42 Oeste 0 -- -- 63
2019-04-25 22:00:00 13.9 19 Oeste 45 Oeste 0 -- -- 52
2019-04-25 21:00:00 14.3 17 Sudoeste 46 Oeste 0 -- -- 47
2019-04-25 20:00:00 15.3 23 Sudoeste 48 Sudoeste 0 -- -- 45
2019-04-25 19:00:00 17.6 19 Sudoeste 50 Oeste 0 -- -- 39
2019-04-25 18:00:00 17.5 27 Sudoeste 41 Sudoeste 0 -- -- 38
2019-04-25 17:00:00 17.3 28 Oeste 50 Oeste 0 -- -- 39
2019-04-25 16:00:00 18 16 Oeste 46 Oeste 0 -- -- 43
2019-04-25 15:00:00 17.3 21 Oeste 45 Oeste 0 -- -- 41
2019-04-25 14:00:00 16 25 Sudoeste 65 Sudoeste 0 -- -- 45
2019-04-25 13:00:00 14.7 29 Sudoeste 57 Sudoeste 0 -- -- 49
2019-04-25 12:00:00 14.7 26 Oeste 55 Sudoeste 0 -- -- 53
2019-04-25 11:00:00 13.5 31 Oeste 66 Oeste 0 -- -- 54
2019-04-25 10:00:00 12.5 33 Sudoeste 59 Sudoeste 0 -- -- 55
2019-04-25 09:00:00 11.6 25 Sudoeste 54 Sudoeste 0 -- -- 58
2019-04-25 08:00:00 11.2 23 Sudoeste 45 Sudoeste 0 -- -- 60
2019-04-25 07:00:00 11 27 Sudoeste 47 Sudoeste 0.2 -- -- 61
2019-04-25 06:00:00 10.9 16 Oeste 33 Sudoeste 0 -- -- 71
2019-04-25 05:00:00 10.4 12 Sudoeste 27 Sudoeste 0 -- -- 80
2019-04-25 04:00:00 10.3 11 Sudoeste 15 Sudoeste 1.2 -- -- 87
2019-04-25 03:00:00 11.2 2 Sur 8 Este 1 -- -- 87
2019-04-25 02:00:00 12.3 4 Oeste 18 Oeste 0.2 -- -- 75
2019-04-25 01:00:00 13.8 13 Sudoeste 27 Sudoeste 0 -- -- 62
2019-04-25 00:00:00 13.5 14 Oeste 33 Oeste 0 -- -- 64
2019-04-24 23:00:00 13.5 20 Sudoeste 38 Oeste 0 -- -- 67
2019-04-24 22:00:00 13.4 11 Sudoeste 36 Oeste 0 -- -- 69
2019-04-24 21:00:00 12.5 21 Sudoeste 39 Sudoeste 0.4 -- -- 77
2019-04-24 20:00:00 11.2 14 Sur 33 Sudoeste 7.8 -- -- 88
2019-04-24 19:00:00 13.2 15 Sur 37 Sur 0.4 -- -- 72
2019-04-24 18:00:00 13.4 12 Sur 35 Sur 0.4 -- -- 74
2019-04-24 17:00:00 15.8 8 Sur 33 Este 0 -- -- 55
2019-04-24 16:00:00 16 8 Sur 44 Sudoeste 0 -- -- 50
2019-04-24 15:00:00 16.3 16 Sudoeste 49 Sur 0 -- -- 49
2019-04-24 14:00:00 15.6 22 Sur 55 Sudeste 0 -- -- 51
2019-04-24 13:00:00 13.2 12 Sur 37 Sur 0 -- -- 54
2019-04-24 12:00:00 12.3 11 Sur 32 Sur 0 -- -- 51
2019-04-24 11:00:00 12.1 13 Sur 40 Sur 0 -- -- 53
2019-04-24 10:00:00 -- -- -- -- -- -- -- -- --
2019-04-24 09:00:00 11.1 6 Sudoeste 30 Sur 0 -- -- 59
2019-04-24 08:00:00 9.6 14 Sudoeste 37 Sur 0 -- -- 62
2019-04-24 07:00:00 9.4 13 Oeste 32 Sudoeste 0 -- -- 66
2019-04-24 06:00:00 9.2 19 Sudoeste 30 Sudoeste 0 -- -- 72
2019-04-24 05:00:00 9 5 Sur 23 Sudoeste 0 -- -- 73
2019-04-24 04:00:00 9 18 Sudoeste 41 Sudoeste 0 -- -- 76
2019-04-24 03:00:00 9.3 17 Sudoeste 35 Sudoeste 0 -- -- 76
2019-04-24 02:00:00 9 19 Sudoeste 39 Sudoeste 0 -- -- 81
2019-04-24 01:00:00 8.8 22 Sudoeste 35 Oeste 0 -- -- 88
2019-04-24 00:00:00 8.8 18 Oeste 55 Oeste 1.8 -- -- 91
2019-04-23 23:00:00 11.4 11 Oeste 32 Noroeste 0 -- -- 89
2019-04-23 22:00:00 11.8 6 Noroeste 21 Oeste 0 -- -- 75
2019-04-23 21:00:00 12 6 Sur 21 Sur 0 -- -- 73
2019-04-23 20:00:00 11.7 2 Noroeste 9 Sudoeste 0 -- -- 90
2019-04-23 19:00:00 12 3 Sudeste 15 Sudoeste 0 -- -- 88
2019-04-23 18:00:00 11.5 5 Sudoeste 13 Oeste 0.4 -- -- 91
2019-04-23 17:00:00 11.1 2 Oeste 51 Oeste 4 -- -- 91
2019-04-23 16:00:00 12.8 19 Oeste 32 Noroeste 3.8 -- -- 92
2019-04-23 15:00:00 14 15 Noroeste 29 Noroeste 0.6 -- -- 83
2019-04-23 14:00:00 17.8 3 Norte 7 Norte 0 -- -- 61
2019-04-23 13:00:00 17.1 0 Calma 6 Nordeste 0 -- -- 62
2019-04-23 12:00:00 16.8 2 Norte 14 Oeste 0 -- -- 63
2019-04-23 11:00:00 17.4 6 Sudeste 16 Sur 0 -- -- 59
2019-04-23 10:00:00 17.4 6 Sudeste 16 Sudeste 0 -- -- 64
2019-04-23 09:00:00 16 3 Sur 14 Sudoeste 0 -- -- 62
2019-04-23 08:00:00 15.1 3 Oeste 15 Oeste 0 -- -- 63
2019-04-23 07:00:00 15.3 6 Oeste 19 Sur 0 -- -- 61
2019-04-23 06:00:00 15.9 6 Sur 33 Sur 0 -- -- 59
2019-04-23 05:00:00 16.5 12 Sur 36 Sur 0 -- -- 56
2019-04-23 04:00:00 16.5 12 Sudoeste 33 Sudoeste 0 -- -- 55
2019-04-23 03:00:00 16.6 14 Sudoeste 29 Sudoeste 0 -- -- 55
2019-04-23 02:00:00 17 11 Sudoeste 32 Sur 0 -- -- 53
2019-04-23 01:00:00 16.9 8 Sudoeste 26 Sur 0 -- -- 53
2019-04-23 00:00:00 17.6 10 Sur 31 Sur 0 -- -- 51
2019-04-22 23:00:00 17.2 6 Sudeste 19 Sur 0 -- -- 55
2019-04-22 22:00:00 16.6 6 Sudeste 11 Sudeste 0 -- -- 59
2019-04-22 21:00:00 15.8 3 Sudoeste 10 Este 0 -- -- 72
2019-04-22 20:00:00 16 7 Este 23 Este 0 -- -- 77
2019-04-22 19:00:00 17.2 15 Sudeste 25 Sudeste 0 -- -- 71
2019-04-22 18:00:00 16.6 9 Este 20 Sudeste 0 -- -- 78
2019-04-22 17:00:00 16.8 10 Este 18 Este 0 -- -- 77
2019-04-22 16:00:00 17.2 12 Este 22 Este 0 -- -- 74
2019-04-22 15:00:00 17.3 14 Este 20 Este 0 -- -- 75
2019-04-22 14:00:00 16.9 9 Este 13 Este 0 -- -- 72
2019-04-22 13:00:00 16.8 6 Este 12 Este 0 -- -- 70
2019-04-22 12:00:00 15.8 4 Nordeste 8 Nordeste 0 -- -- 72
2019-04-22 11:00:00 15.1 4 Norte 7 Nordeste 0 -- -- 74
2019-04-22 10:00:00 14.1 4 Nordeste 5 Nordeste 0 -- -- 76
2019-04-22 09:00:00 12.9 0 Calma 3 Nordeste 0 -- -- 84
2019-04-22 08:00:00 11.6 0 Calma 5 Sur 0 -- -- 85
2019-04-22 07:00:00 11.8 3 Sudoeste 6 Sudoeste 0 -- -- 84
2019-04-22 06:00:00 11.7 4 Sudoeste 8 Sudoeste 0 -- -- 84
2019-04-22 05:00:00 11.8 4 Sudoeste 5 Sudoeste 0 -- -- 84
2019-04-22 04:00:00 11.9 0 Calma 6 Oeste 0 -- -- 84
2019-04-22 03:00:00 11.7 4 Sudoeste 6 Oeste 0 -- -- 86
2019-04-22 02:00:00 11.8 0 Calma 5 Sudoeste 0 -- -- 85
2019-04-22 01:00:00 12.1 4 Oeste 7 Sudoeste 0 -- -- 85
2019-04-22 00:00:00 12.2 5 Sudoeste 6 Sudoeste 0 -- -- 85
2019-04-21 23:00:00 12.2 4 Sudoeste 8 Sudoeste 0 -- -- 85
2019-04-21 22:00:00 12.3 5 Sudoeste 8 Sudoeste 0 -- -- 86
2019-04-21 21:00:00 12.7 5 Sudoeste 8 Sudoeste 0 -- -- 85
2019-04-21 20:00:00 13.4 0 Calma 6 Nordeste 0 -- -- 82
2019-04-21 19:00:00 13.4 4 Nordeste 8 Nordeste 0 -- -- 79
2019-04-21 18:00:00 14.2 4 Nordeste 10 Este 0 -- -- 75
2019-04-21 17:00:00 14.8 7 Nordeste 10 Nordeste 0 -- -- 75
2019-04-21 16:00:00 15 5 Este 12 Este 0 -- -- 77
2019-04-21 15:00:00 14.4 9 Este 12 Nordeste 0 -- -- 81
2019-04-21 14:00:00 14 2 Noroeste 9 Norte 0 -- -- 82
2019-04-21 13:00:00 14.1 4 Noroeste 9 Norte 0 -- -- 80
2019-04-21 12:00:00 13.9 4 Noroeste 7 Noroeste 0 -- -- 76
2019-04-21 11:00:00 14.1 3 Norte 8 Norte 0 -- -- 70
2019-04-21 10:00:00 14.4 2 Este 5 Sudoeste 0 -- -- 63
2019-04-21 09:00:00 12.1 5 Oeste 6 Oeste 0 -- -- 69
2019-04-21 08:00:00 11.3 5 Sudoeste 10 Sudoeste 0 -- -- 69
2019-04-21 07:00:00 11.4 3 Sudoeste 15 Sudoeste 0 -- -- 68
2019-04-21 06:00:00 11.5 8 Sur 12 Sudoeste 0 -- -- 67
2019-04-21 05:00:00 11.8 8 Sudoeste 18 Sudoeste 0 -- -- 66
2019-04-21 04:00:00 12.5 7 Sudoeste 18 Sudoeste 0 -- -- 65
2019-04-21 03:00:00 12.4 10 Sudoeste 15 Sudoeste 0 -- -- 66
2019-04-21 02:00:00 12.5 3 Sur 15 Sudoeste 0 -- -- 65
2019-04-21 01:00:00 13.2 13 Sudoeste 16 Sudoeste 0 -- -- 63
2019-04-21 00:00:00 13.2 12 Sudoeste 18 Sudoeste 0 -- -- 59
2019-04-20 23:00:00 13.4 6 Oeste 12 Oeste 0 -- -- 59
2019-04-20 22:00:00 13.5 5 Oeste 8 Oeste 0 -- -- 65
2019-04-20 21:00:00 13.5 3 Sudoeste 12 Noroeste 0 -- -- 74
2019-04-20 20:00:00 14.5 6 Noroeste 17 Noroeste 0 -- -- 71
2019-04-20 19:00:00 14.9 9 Noroeste 17 Noroeste 0 -- -- 77
2019-04-20 18:00:00 15 9 Noroeste 17 Noroeste 0 -- -- 75
2019-04-20 17:00:00 15.1 7 Noroeste 16 Oeste 0 -- -- 83
2019-04-20 16:00:00 15.2 7 Noroeste 15 Noroeste 0 -- -- 81
2019-04-20 15:00:00 14.9 8 Noroeste 18 Norte 0 -- -- 85
2019-04-20 14:00:00 14.3 9 Noroeste 26 Oeste 0 -- -- 88
2019-04-20 13:00:00 14.8 10 Noroeste 23 Oeste 0 -- -- 86
2019-04-20 12:00:00 14.1 15 Noroeste 29 Noroeste 0 -- -- 89
2019-04-20 11:00:00 13.9 13 Noroeste 27 Oeste 0 -- -- 86
2019-04-20 10:00:00 13.8 9 Noroeste 17 Oeste 0 -- -- 77
2019-04-20 09:00:00 13 4 Noroeste 8 Oeste 0 -- -- 77
2019-04-20 08:00:00 12.2 3 Oeste 8 Oeste 0 -- -- 81
2019-04-20 07:00:00 11.7 0 Calma 5 Oeste 0 -- -- 83
2019-04-20 06:00:00 12.4 4 Oeste 7 Oeste 0 -- -- 78
2019-04-20 05:00:00 12.8 2 Sudeste 9 Sudeste 0 -- -- 78
2019-04-20 04:00:00 14.3 2 Nordeste 8 Sudoeste 0 -- -- 71
2019-04-20 03:00:00 14.6 7 Sudoeste 13 Sudoeste 0 -- -- 69
2019-04-20 02:00:00 13.3 4 Sudoeste 9 Sudoeste 0 -- -- 70
2019-04-20 01:00:00 13.2 2 Sudoeste 9 Sur 0 -- -- 72
2019-04-20 00:00:00 12.8 5 Sur 12 Este 0 -- -- 79
2019-04-19 23:00:00 13.6 4 Este 10 Nordeste 0 -- -- 76
2019-04-19 22:00:00 15 0 Calma 5 Sudoeste 0 -- -- 64
2019-04-19 21:00:00 15.6 5 Sudoeste 7 Oeste 0 -- -- 62
2019-04-19 20:00:00 17.2 0 Calma 4 Este 0 -- -- 65
2019-04-19 19:00:00 17.1 2 Sudeste 8 Este 0 -- -- 63
2019-04-19 18:00:00 17 6 Este 10 Este 0 -- -- 67
2019-04-19 17:00:00 16.5 6 Sudeste 10 Sudeste 0 -- -- 70
2019-04-19 16:00:00 16.5 8 Sudeste 14 Este 0 -- -- 81
2019-04-19 15:00:00 17.4 10 Este 16 Este 0 -- -- 78
2019-04-19 14:00:00 19.8 5 Este 12 Sudeste 0 -- -- 59
2019-04-19 13:00:00 19.2 6 Sudeste 10 Sudeste 0 -- -- 61
2019-04-19 12:00:00 16.4 0 Calma 4 Sudeste 0 -- -- 85
2019-04-19 11:00:00 14.4 0 Calma 5 Este 0 -- -- 93
2019-04-19 10:00:00 12.6 2 Oeste 4 Oeste 0 -- -- 95
2019-04-19 09:00:00 11.9 2 Este 5 Este 0 -- -- 95
2019-04-19 08:00:00 11.7 0 Calma 7 Nordeste 0 -- -- 95
2019-04-19 07:00:00 11.7 2 Sudeste 7 Sur 0 -- -- 94
2019-04-19 06:00:00 12 0 Calma 7 Oeste 0 -- -- 94
2019-04-19 05:00:00 12 2 Noroeste 8 Noroeste 0 -- -- 93
2019-04-19 04:00:00 11.9 4 Oeste 12 Oeste 0 -- -- 92
2019-04-19 03:00:00 11.9 4 Este 8 Sur 0 -- -- 90
2019-04-19 02:00:00 12 4 Este 7 Oeste 0 -- -- 88
2019-04-19 01:00:00 12.3 5 Oeste 12 Noroeste 0 -- -- 88
2019-04-19 00:00:00 13.2 2 Norte 4 Sudoeste 0 -- -- 78
2019-04-18 23:00:00 13.4 0 Calma 5 Sudoeste 0 -- -- 76
2019-04-18 22:00:00 13.4 2 Sudoeste 9 Sudoeste 0 -- -- 78
2019-04-18 21:00:00 13.4 4 Sudeste 14 Sudeste 0 -- -- 80
2019-04-18 20:00:00 13.6 6 Sudeste 15 Sudeste 0 -- -- 82
2019-04-18 19:00:00 14.6 8 Este 13 Este 0 -- -- 80
2019-04-18 18:00:00 15.5 11 Este 15 Este 0 -- -- 80
2019-04-18 17:00:00 14.6 11 Este 15 Este 0 -- -- 87
2019-04-18 16:00:00 15.3 9 Este 15 Este 0 -- -- 90
2019-04-18 15:00:00 13.3 8 Este 17 Este 0 -- -- 95
2019-04-18 14:00:00 12.6 5 Noroeste 18 Noroeste 0.2 -- -- 94
2019-04-18 13:00:00 13.1 5 Este 15 Este 0 -- -- 91
2019-04-18 12:00:00 13.8 5 Norte 14 Sudeste 0 -- -- 84
2019-04-18 11:00:00 15.5 6 Sudeste 11 Sur 0 -- -- 63
2019-04-18 10:00:00 16 6 Sudoeste 14 Sur 0 -- -- 59
2019-04-18 09:00:00 16.6 8 Sudoeste 22 Este 0 -- -- 55
2019-04-18 08:00:00 16.7 8 Sudoeste 27 Sudoeste 0 -- -- 54
2019-04-18 07:00:00 17.1 8 Oeste 28 Sudoeste 0 -- -- 53
2019-04-18 06:00:00 17.8 13 Sur 42 Sudeste 0 -- -- 49
2019-04-18 05:00:00 18.2 10 Sudoeste 41 Sudeste 0 -- -- 45
2019-04-18 04:00:00 18.5 9 Este 41 Sudeste 0 -- -- 44
2019-04-18 03:00:00 18.3 7 Sudeste 35 Sur 0 -- -- 45
2019-04-18 02:00:00 18.9 19 Sur 45 Sur 0 -- -- 47
2019-04-18 01:00:00 19.4 21 Sur 55 Sur 0 -- -- 48
2019-04-18 00:00:00 20.2 24 Sur 57 Sudoeste 0 -- -- 48
2019-04-17 23:00:00 20.3 5 Sur 39 Sudeste 0 -- -- 47
2019-04-17 22:00:00 19.5 5 Nordeste 39 Sudeste 0 -- -- 53
2019-04-17 21:00:00 19.8 16 Este 48 Este 0 -- -- 50
2019-04-17 20:00:00 18.2 9 Sudeste 18 Sudeste 0 -- -- 60
2019-04-17 19:00:00 19.6 10 Este 28 Sudeste 0 -- -- 55
2019-04-17 18:00:00 20.4 13 Sudeste 23 Sudeste 0 -- -- 54
2019-04-17 17:00:00 20.7 12 Este 27 Sudeste 0 -- -- 53
2019-04-17 16:00:00 21 16 Este 32 Sudeste 0 -- -- 49
2019-04-17 15:00:00 20.3 15 Sudeste 34 Este 0 -- -- 52
2019-04-17 14:00:00 19 9 Este 39 Sudeste 0 -- -- 53
2019-04-17 13:00:00 17.7 16 Sudeste 47 Sudeste 0 -- -- 56
2019-04-17 12:00:00 16.7 25 Sudeste 48 Sur 0 -- -- 55
2019-04-17 11:00:00 16.5 20 Sudeste 39 Sudoeste 0 -- -- 57
2019-04-17 10:00:00 16.3 12 Sudeste 41 Sur 0 -- -- 56
2019-04-17 09:00:00 16.1 14 Sur 53 Sudeste 0 -- -- 55
2019-04-17 08:00:00 15.9 15 Sur 43 Sur 0 -- -- 55
2019-04-17 07:00:00 16.3 14 Sudeste 37 Sudoeste 0 -- -- 53
2019-04-17 06:00:00 16.7 10 Oeste 39 Sudeste 0 -- -- 51
2019-04-17 05:00:00 16.4 16 Sudeste 41 Sudeste 0 -- -- 54
2019-04-17 04:00:00 16.1 13 Este 36 Sudeste 0 -- -- 58
2019-04-17 03:00:00 13.7 10 Este 18 Nordeste 0 -- -- 73
2019-04-17 02:00:00 12.5 9 Sudeste 17 Este 0 -- -- 84
2019-04-17 01:00:00 12.2 9 Este 13 Este 0 -- -- 86
2019-04-17 00:00:00 12.8 5 Sudeste 10 Sudeste 0 -- -- 83
2019-04-16 23:00:00 12.6 0 Calma 4 Sudoeste 0 -- -- 86
2019-04-16 22:00:00 12.4 0 Calma 18 Sudeste 0 -- -- 88
2019-04-16 21:00:00 12.6 12 Sudeste 18 Sudeste 0 -- -- 88
2019-04-16 20:00:00 13.9 13 Este 23 Este 0 -- -- 83
2019-04-16 19:00:00 14.6 12 Este 22 Este 0 -- -- 81
2019-04-16 18:00:00 16.3 13 Este 22 Este 0 -- -- 75
2019-04-16 17:00:00 16.5 13 Este 22 Este 0 -- -- 74
2019-04-16 16:00:00 16.5 10 Este 20 Este 0 -- -- 75
2019-04-16 15:00:00 16.6 10 Este 22 Este 0 -- -- 75
2019-04-16 14:00:00 15.9 11 Este 18 Nordeste 0 -- -- 77
2019-04-16 13:00:00 14.7 12 Este 17 Este 0 -- -- 76
2019-04-16 12:00:00 14.6 12 Este 17 Este 0 -- -- 75
2019-04-16 11:00:00 14.7 8 Este 14 Este 0 -- -- 76
2019-04-16 10:00:00 13.6 3 Nordeste 12 Sudoeste 0 -- -- 74
2019-04-16 09:00:00 11.6 8 Sudoeste 16 Sudoeste 0 -- -- 79
2019-04-16 08:00:00 10.1 12 Sudoeste 16 Sudoeste 0 -- -- 84
2019-04-16 07:00:00 10.3 10 Sudoeste 24 Oeste 0 -- -- 84
2019-04-16 06:00:00 10.4 12 Sudoeste 24 Sudoeste 0 -- -- 85
2019-04-16 05:00:00 10.6 15 Sudoeste 25 Oeste 0 -- -- 84
2019-04-16 04:00:00 10.8 16 Oeste 26 Sudoeste 0 -- -- 85
2019-04-16 03:00:00 10.9 13 Oeste 26 Oeste 0 -- -- 85
2019-04-16 02:00:00 11.5 16 Oeste 31 Oeste 0 -- -- 86
2019-04-16 01:00:00 11.4 15 Oeste 26 Oeste 0 -- -- 89
2019-04-16 00:00:00 11.6 17 Sudoeste 26 Sudoeste 0.2 -- -- 92
2019-04-15 23:00:00 11.8 11 Oeste 22 Oeste 0.6 -- -- 92
2019-04-15 22:00:00 12 8 Sudoeste 16 Sudoeste 0.8 -- -- 91
2019-04-15 21:00:00 12.4 9 Oeste 39 Oeste 0.2 -- -- 87
2019-04-15 20:00:00 12.5 23 Oeste 52 Oeste 0 -- -- 88
2019-04-15 19:00:00 13.2 25 Oeste 50 Oeste 2.8 -- -- 92
2019-04-15 18:00:00 14.5 21 Oeste 52 Noroeste 5.2 -- -- 92
2019-04-15 17:00:00 19 30 Noroeste 54 Noroeste 0 -- -- 66
2019-04-15 16:00:00 23 9 Este 15 Este 0 -- -- 55
2019-04-15 15:00:00 22.2 5 Este 21 Este 0 -- -- 59
2019-04-15 14:00:00 22.2 10 Este 17 Este 0 -- -- 58
2019-04-15 13:00:00 22.3 7 Sur 23 Sur 0 -- -- 52
2019-04-15 12:00:00 22.2 6 Oeste 33 Sur 0 -- -- 55
2019-04-15 11:00:00 19.6 7 Oeste 27 Sur 0 -- -- 61
2019-04-15 10:00:00 18 0 Calma 17 Sudeste 0 -- -- 71
2019-04-15 09:00:00 17.4 14 Sudeste 21 Sudeste 0 -- -- 66
2019-04-15 08:00:00 13.9 0 Calma 10 Oeste 0 -- -- 81
2019-04-15 07:00:00 13.4 3 Sudeste 10 Sur 0 -- -- 84
2019-04-15 06:00:00 13.3 4 Este 6 Sudeste 0 -- -- 87
2019-04-15 05:00:00 12.7 3 Oeste 6 Sudeste 0 -- -- 91
2019-04-15 04:00:00 11.9 6 Sudeste 9 Este 0 -- -- 92
2019-04-15 03:00:00 11.8 3 Sudeste 8 Sudeste 0 -- -- 89
2019-04-15 02:00:00 11.8 3 Sur 12 Este 0 -- -- 88
2019-04-15 01:00:00 11.5 8 Sudeste 14 Este 0 -- -- 89
2019-04-15 00:00:00 12.4 3 Nordeste 14 Sudeste 0 -- -- 83
2019-04-14 23:00:00 11.7 10 Sudeste 17 Sudeste 0 -- -- 86
2019-04-14 22:00:00 12 10 Sudeste 14 Este 0 -- -- 85
2019-04-14 21:00:00 14.2 5 Sudeste 9 Este 0 -- -- 81
2019-04-14 20:00:00 14.6 4 Sudeste 14 Sudeste 0 -- -- 80
2019-04-14 19:00:00 14.6 10 Sudeste 15 Este 0 -- -- 75
2019-04-14 18:00:00 15 12 Este 17 Sudeste 0 -- -- 73
2019-04-14 17:00:00 14.4 9 Este 14 Este 0 -- -- 76
2019-04-14 16:00:00 14.8 6 Nordeste 14 Este 0 -- -- 80
2019-04-14 15:00:00 16 8 Este 15 Este 0 -- -- 77
2019-04-14 14:00:00 16 6 Este 12 Este 0 -- -- 62
2019-04-14 13:00:00 14.8 5 Este 10 Este 0 -- -- 67
2019-04-14 12:00:00 13.9 6 Este 8 Este 0 -- -- 74
2019-04-14 11:00:00 13.9 3 Este 6 Este 0 -- -- 71
2019-04-14 10:00:00 12.6 4 Este 8 Este 0 -- -- 80
2019-04-14 09:00:00 11.7 4 Oeste 7 Noroeste 0 -- -- 76
2019-04-14 08:00:00 11.4 0 Calma 5 Sur 0 -- -- 71
2019-04-14 07:00:00 11.4 4 Sudeste 8 Oeste 0 -- -- 68
2019-04-14 06:00:00 11.3 5 Oeste 8 Oeste 0 -- -- 77
2019-04-14 05:00:00 11.1 4 Oeste 6 Oeste 0 -- -- 71
2019-04-14 04:00:00 11.3 3 Oeste 6 Noroeste 0 -- -- 66
2019-04-14 03:00:00 11.3 0 Calma 5 Oeste 0 -- -- 69
2019-04-14 02:00:00 11.4 3 Oeste 4 Oeste 0 -- -- 66
2019-04-14 01:00:00 11.5 0 Calma -- -- 0 -- -- 75
2019-04-14 00:00:00 11.1 0 Calma 3 Sudeste 0 -- -- 75
2019-04-13 23:00:00 11 2 Sur 3 Sur 0 -- -- 79
2019-04-13 22:00:00 11.2 3 Nordeste 7 Sudeste 0 -- -- 79
2019-04-13 21:00:00 12.4 4 Sudeste 8 Sudeste 0 -- -- 73
2019-04-13 20:00:00 15.3 3 Sudeste 7 Nordeste 0 -- -- 65
2019-04-13 19:00:00 16.1 6 Este 19 Este 0 -- -- 67
2019-04-13 18:00:00 16.5 13 Este 19 Este 0 -- -- 64
2019-04-13 17:00:00 16.6 11 Este 16 Este 0 -- -- 64
2019-04-13 16:00:00 16 12 Este 20 Este 0 -- -- 66
2019-04-13 15:00:00 15.4 12 Este 19 Este 0 -- -- 67
2019-04-13 14:00:00 15.1 10 Este 22 Este 0 -- -- 65
2019-04-13 13:00:00 14.2 12 Este 19 Este 0 -- -- 65
2019-04-13 12:00:00 13.6 10 Este 19 Este 0 -- -- 66
2019-04-13 11:00:00 13.6 9 Este 17 Este 0 -- -- 59
2019-04-13 10:00:00 12.4 3 Este 6 Este 0 -- -- 64
2019-04-13 09:00:00 10.5 3 Este 5 Sudeste 0 -- -- 69
2019-04-13 08:00:00 8.2 3 Sudeste 10 Sudeste 0 -- -- 66
2019-04-13 07:00:00 7.9 3 Sudeste 12 Sudeste 0 -- -- 69
2019-04-13 06:00:00 8 7 Sudeste 14 Sudeste 0 -- -- 72
2019-04-13 05:00:00 8.1 6 Sudeste 13 Sudeste 0 -- -- 72
2019-04-13 04:00:00 8.3 8 Sudeste 13 Sudeste 0 -- -- 71
2019-04-13 03:00:00 8.3 6 Sudeste 13 Sudeste 0 -- -- 73
2019-04-13 02:00:00 8.4 8 Sudeste 13 Sudeste 0 -- -- 75
2019-04-13 01:00:00 8.3 8 Sur 12 Sur 0 -- -- 78
2019-04-13 00:00:00 8.3 7 Sur 10 Sudeste 0 -- -- 78
2019-04-12 23:00:00 8.7 6 Sur 9 Sudeste 0 -- -- 78
2019-04-12 22:00:00 9.3 5 Sur 8 Sur 0 -- -- 74
2019-04-12 21:00:00 10.9 5 Este 8 Este 0 -- -- 69
2019-04-12 20:00:00 13.3 3 Nordeste 7 Nordeste 0 -- -- 60
2019-04-12 19:00:00 13.9 2 Norte 9 Norte 0 -- -- 66
2019-04-12 18:00:00 13.7 4 Norte 11 Noroeste 0 -- -- 69
2019-04-12 17:00:00 13.7 4 Norte 12 Norte 0 -- -- 69
2019-04-12 16:00:00 14.3 4 Norte 10 Norte 0 -- -- 68
2019-04-12 15:00:00 13.8 5 Noroeste 14 Noroeste 0 -- -- 74
2019-04-12 14:00:00 13.6 5 Noroeste 13 Noroeste 0 -- -- 74
2019-04-12 13:00:00 13.4 5 Norte 10 Noroeste 0 -- -- 72
2019-04-12 12:00:00 12.7 4 Noroeste 13 Noroeste 0 -- -- 76
2019-04-12 11:00:00 11.5 7 Noroeste 16 Norte 0 -- -- 83
2019-04-12 10:00:00 10.5 9 Oeste 17 Oeste 0 -- -- 85
2019-04-12 09:00:00 9.6 9 Oeste 17 Oeste 0 -- -- 87
2019-04-12 08:00:00 9.2 9 Oeste 17 Oeste 0 -- -- 86
2019-04-12 07:00:00 9.4 10 Oeste 16 Oeste 0 -- -- 86
2019-04-12 06:00:00 9.6 12 Oeste 18 Oeste 0 -- -- 85
2019-04-12 05:00:00 9.6 14 Oeste 26 Oeste 0 -- -- 84
2019-04-12 04:00:00 9.5 13 Oeste 24 Oeste 0 -- -- 86
2019-04-12 03:00:00 9.6 12 Oeste 22 Oeste 0 -- -- 85
2019-04-12 02:00:00 9.6 10 Oeste 32 Oeste 0 -- -- 84
2019-04-12 01:00:00 9.7 17 Oeste 26 Oeste 0 -- -- 82
2019-04-12 00:00:00 9.6 15 Oeste 28 Oeste 0 -- -- 82
2019-04-11 23:00:00 9.8 16 Oeste 29 Oeste 0 -- -- 84
2019-04-11 22:00:00 10 14 Oeste 29 Oeste 0 -- -- 84
2019-04-11 21:00:00 10 16 Oeste 23 Oeste 0 -- -- 84
2019-04-11 20:00:00 10.6 14 Oeste 27 Noroeste 0 -- -- 80
2019-04-11 19:00:00 11.1 15 Noroeste 32 Noroeste 0 -- -- 78
2019-04-11 18:00:00 11.6 14 Noroeste 27 Noroeste 0 -- -- 81
2019-04-11 17:00:00 12.3 12 Noroeste 23 Norte 0 -- -- 78
2019-04-11 16:00:00 11.7 7 Noroeste 28 Noroeste 0 -- -- 87
2019-04-11 15:00:00 10.8 18 Noroeste 34 Noroeste 0 -- -- 86
2019-04-11 14:00:00 11.8 17 Noroeste 31 Oeste 0.2 -- -- 79
2019-04-11 13:00:00 10.4 19 Noroeste 33 Noroeste 0 -- -- 87
2019-04-11 12:00:00 10.7 11 Oeste 33 Oeste 0 -- -- 89
2019-04-11 11:00:00 9.5 18 Oeste 28 Noroeste 0.4 -- -- 90
2019-04-11 10:00:00 9.7 17 Oeste 26 Oeste 0 -- -- 88
2019-04-11 09:00:00 8.9 16 Oeste 28 Oeste 0.6 -- -- 91
2019-04-11 08:00:00 8.9 17 Oeste 30 Oeste 0 -- -- 89
2019-04-11 07:00:00 9.1 19 Oeste 27 Oeste 0 -- -- 87
2019-04-11 06:00:00 8.9 15 Oeste 23 Noroeste 0 -- -- 89
2019-04-11 05:00:00 9.1 14 Oeste 27 Oeste 0 -- -- 90
2019-04-11 04:00:00 9.1 14 Oeste 24 Oeste 0 -- -- 92
2019-04-11 03:00:00 9.1 14 Oeste 28 Oeste 3.4 -- -- 93
2019-04-11 02:00:00 9.4 16 Oeste 30 Oeste 0.2 -- -- 90
2019-04-11 01:00:00 8.8 17 Sudoeste 29 Oeste 1.2 -- -- 89
2019-04-11 00:00:00 9.2 15 Oeste 25 Oeste 0 -- -- 90
2019-04-10 23:00:00 9.5 19 Oeste 30 Oeste 0.8 -- -- 90
2019-04-10 22:00:00 9.8 15 Oeste 26 Noroeste 0 -- -- 88
2019-04-10 21:00:00 10.3 16 Oeste 28 Noroeste 0 -- -- 87
2019-04-10 20:00:00 10.7 13 Noroeste 24 Noroeste 0 -- -- 89
2019-04-10 19:00:00 11.3 16 Oeste 25 Noroeste 0 -- -- 89
2019-04-10 18:00:00 10.2 17 Oeste 24 Oeste 1.6 -- -- 93
2019-04-10 17:00:00 9.3 17 Oeste 27 Oeste 1.2 -- -- 90
2019-04-10 16:00:00 9 18 Oeste 27 Oeste 0.2 -- -- 91
2019-04-10 15:00:00 8.2 15 Sudoeste 22 Sudoeste 2.6 -- -- 93
2019-04-10 14:00:00 8.1 18 Sudoeste 27 Sudoeste 12.2 -- -- 93
2019-04-10 13:00:00 10 6 Sudoeste 20 Oeste 1.8 -- -- 87
2019-04-10 12:00:00 10.4 12 Oeste 21 Oeste 0 -- -- 85
2019-04-10 11:00:00 10.2 12 Oeste 18 Oeste 0.6 -- -- 90
2019-04-10 10:00:00 10.1 15 Oeste 22 Oeste 0.2 -- -- 85
2019-04-10 09:00:00 9.5 14 Oeste 21 Sudoeste 0 -- -- 83
2019-04-10 08:00:00 9.3 12 Oeste 17 Sudoeste 0 -- -- 78
2019-04-10 07:00:00 8.8 9 Sudoeste 17 Oeste 0 -- -- 76
2019-04-10 06:00:00 8.7 9 Sudoeste 24 Oeste 0 -- -- 76
2019-04-10 05:00:00 9 14 Oeste 23 Oeste 0 -- -- 73
2019-04-10 04:00:00 9.6 6 Sudoeste 9 Sudoeste 0 -- -- 69
2019-04-10 03:00:00 9.4 5 Sudoeste 16 Sudoeste 0 -- -- 71
2019-04-10 02:00:00 9 14 Sudoeste 20 Sudoeste 0 -- -- 76
2019-04-10 01:00:00 9.1 14 Sudoeste 20 Sudoeste 0 -- -- 77
2019-04-10 00:00:00 9 17 Sudoeste 21 Sudoeste 0 -- -- 81
2019-04-09 23:00:00 8.7 8 Sudoeste 14 Sudoeste 0 -- -- 86
2019-04-09 22:00:00 8.9 12 Sudoeste 26 Sudoeste 0 -- -- 86
2019-04-09 21:00:00 8.9 15 Sudoeste 37 Oeste 1.6 -- -- 90
2019-04-09 20:00:00 9 26 Sudoeste 45 Oeste 1.6 -- -- 90
2019-04-09 19:00:00 11.4 17 Oeste 30 Noroeste 0 -- -- 83
2019-04-09 18:00:00 11.6 14 Noroeste 30 Noroeste 0.4 -- -- 82
2019-04-09 17:00:00 11.5 16 Noroeste 25 Oeste 0.6 -- -- 83
2019-04-09 16:00:00 14.7 3 Norte 12 Nordeste 0 -- -- 64
2019-04-09 15:00:00 16.2 10 Este 21 Oeste 0 -- -- 63
2019-04-09 14:00:00 16.9 11 Sudoeste 26 Oeste 0 -- -- 46
2019-04-09 13:00:00 15.6 15 Oeste 27 Oeste 0 -- -- 51
2019-04-09 12:00:00 15.2 15 Sudoeste 31 Oeste 0 -- -- 54
2019-04-09 11:00:00 13.5 20 Sudoeste 35 Sudoeste 0 -- -- 56
2019-04-09 10:00:00 12 19 Sudoeste 32 Sudoeste 0 -- -- 62
2019-04-09 09:00:00 10.8 13 Oeste 32 Sudoeste 0 -- -- 64
2019-04-09 08:00:00 10 19 Oeste 41 Oeste 0 -- -- 66
2019-04-09 07:00:00 10 13 Oeste 27 Oeste 0 -- -- 67
2019-04-09 06:00:00 10 12 Oeste 24 Oeste 0 -- -- 67
2019-04-09 05:00:00 10.1 8 Oeste 24 Oeste 0 -- -- 69
2019-04-09 04:00:00 10.3 11 Sudoeste 20 Sudoeste 0 -- -- 70
2019-04-09 03:00:00 10 4 Oeste 12 Oeste 0 -- -- 68
2019-04-09 02:00:00 9.6 0 Calma 11 Sudeste 0 -- -- 70
2019-04-09 01:00:00 9.4 8 Sur 19 Sudeste 0 -- -- 74
2019-04-09 00:00:00 9.6 8 Sudeste 14 Sudeste 0 -- -- 73
2019-04-08 23:00:00 9.7 6 Sudeste 11 Sudeste 0 -- -- 74
2019-04-08 22:00:00 9.8 5 Sur 9 Sudeste 0 -- -- 77
2019-04-08 21:00:00 10.7 5 Sudeste 9 Este 0 -- -- 77
2019-04-08 20:00:00 14 5 Este 9 Este 0 -- -- 61
2019-04-08 19:00:00 12.9 3 Sudeste 5 Sudeste 0 -- -- 63
2019-04-08 18:00:00 13.4 4 Este 6 Sudeste 0 -- -- 67
2019-04-08 17:00:00 13.4 0 Calma 9 Este 0.2 -- -- 66
2019-04-08 16:00:00 12.9 2 Norte 9 Este 0 -- -- 77
2019-04-08 15:00:00 13.9 4 Nordeste 14 Oeste 0 -- -- 76
2019-04-08 14:00:00 12.4 9 Oeste 21 Oeste 0.2 -- -- 80
2019-04-08 13:00:00 11.8 16 Noroeste 27 Oeste 0.2 -- -- 85
2019-04-08 12:00:00 11.2 18 Oeste 35 Oeste 0.8 -- -- 89
2019-04-08 11:00:00 12.3 9 Oeste 33 Oeste 0 -- -- 76
2019-04-08 10:00:00 12.5 19 Oeste 33 Oeste 0 -- -- 76
2019-04-08 09:00:00 12.8 16 Sudoeste 30 Sudoeste 0 -- -- 70
2019-04-08 08:00:00 12.3 16 Sudoeste 31 Sudoeste 0 -- -- 69
2019-04-08 07:00:00 12.3 18 Sudoeste 35 Sudoeste 0 -- -- 67
2019-04-08 06:00:00 12.5 22 Sudoeste 41 Sudoeste 0 -- -- 64
2019-04-08 05:00:00 12.6 24 Sudoeste 37 Oeste 0 -- -- 60
2019-04-08 04:00:00 12.2 19 Sudoeste 35 Oeste 0 -- -- 60
2019-04-08 03:00:00 12 15 Sudoeste 32 Sudoeste 0 -- -- 59
2019-04-08 02:00:00 12.4 9 Sudoeste 24 Sur 0 -- -- 57
2019-04-08 01:00:00 12.3 9 Sudoeste 24 Sudoeste 0 -- -- 56
2019-04-08 00:00:00 12.6 7 Sudoeste 27 Sur 0 -- -- 53
2019-04-07 23:00:00 9.8 0 Calma 4 Sudeste 0 -- -- 80
2019-04-07 22:00:00 9.6 3 Sur 15 Este 0 -- -- 82
2019-04-07 21:00:00 9.9 9 Sudeste 22 Sudeste 0 -- -- 81
2019-04-07 20:00:00 11.1 14 Este 21 Este 0 -- -- 76
2019-04-07 19:00:00 12.9 6 Este 13 Este 0 -- -- 70
2019-04-07 18:00:00 14.1 9 Este 13 Este 0 -- -- 64
2019-04-07 17:00:00 13.5 4 Norte 13 Oeste 0 -- -- 64
2019-04-07 16:00:00 12.1 5 Noroeste 21 Noroeste 0 -- -- 69
2019-04-07 15:00:00 12.1 8 Noroeste 23 Oeste 0 -- -- 70
2019-04-07 14:00:00 11.8 12 Oeste 32 Oeste 0 -- -- 65
2019-04-07 13:00:00 11.5 13 Oeste 37 Oeste 0 -- -- 68
2019-04-07 12:00:00 10.5 19 Oeste 51 Oeste 0 -- -- 71
2019-04-07 11:00:00 9.1 25 Oeste 40 Oeste 0 -- -- 78
2019-04-07 10:00:00 8.3 22 Oeste 41 Oeste 0 -- -- 80
2019-04-07 09:00:00 8 24 Sudoeste 40 Sudoeste 0 -- -- 78
2019-04-07 08:00:00 7.7 22 Oeste 39 Sudoeste 0 -- -- 77
2019-04-07 07:00:00 7.5 22 Oeste 39 Sudoeste 0 -- -- 78
2019-04-07 06:00:00 7.8 18 Oeste 34 Sudoeste 0 -- -- 78
2019-04-07 05:00:00 7.7 12 Oeste 27 Sudoeste 0 -- -- 79
2019-04-07 04:00:00 7.5 10 Oeste 20 Oeste 0 -- -- 82
2019-04-07 03:00:00 7.3 11 Oeste 23 Sudoeste 0 -- -- 85
2019-04-07 02:00:00 6.9 15 Oeste 34 Oeste 0.4 -- -- 87
2019-04-07 01:00:00 7.2 21 Oeste 37 Oeste 0 -- -- 84
2019-04-07 00:00:00 7.2 15 Oeste 35 Oeste 0 -- -- 90
2019-04-06 23:00:00 7.5 7 Sur 10 Sur 0 -- -- 86
2019-04-06 22:00:00 7.5 4 Sudoeste 18 Sudoeste 0.4 -- -- 88
2019-04-06 21:00:00 7.3 13 Oeste 37 Oeste 4.4 -- -- 90
2019-04-06 20:00:00 11.1 4 Noroeste 13 Nordeste 0 -- -- 74
2019-04-06 19:00:00 12.1 6 Nordeste 13 Este 0 -- -- 69
2019-04-06 18:00:00 12.9 4 Norte 20 Este 0 -- -- 69
2019-04-06 17:00:00 14.7 5 Nordeste 32 Oeste 0 -- -- 58
2019-04-06 16:00:00 14.8 13 Oeste 32 Sudoeste 0 -- -- 45
2019-04-06 15:00:00 15.3 19 Sudoeste 41 Oeste 0 -- -- 46
2019-04-06 14:00:00 14.5 23 Oeste 46 Oeste 0 -- -- 44
2019-04-06 13:00:00 14 17 Sudoeste 38 Sudoeste 0 -- -- 53
2019-04-06 12:00:00 12.4 16 Oeste 44 Sudoeste 0 -- -- 52
2019-04-06 11:00:00 11.3 17 Sudoeste 31 Sudoeste 0 -- -- 56
2019-04-06 10:00:00 9.6 8 Sudoeste 22 Sudoeste 0 -- -- 66
2019-04-06 09:00:00 7.3 6 Sudoeste 24 Sudoeste 0 -- -- 74
2019-04-06 08:00:00 7 17 Oeste 26 Oeste 0 -- -- 80
2019-04-06 07:00:00 7.4 14 Sudoeste 27 Sudoeste 0 -- -- 89
2019-04-06 06:00:00 7.2 17 Sudoeste 24 Sudoeste 0 -- -- 92
2019-04-06 05:00:00 7.3 5 Sudoeste 20 Oeste 1.6 -- -- 92
2019-04-06 04:00:00 8.1 18 Oeste 39 Oeste 0.2 -- -- 87
2019-04-06 03:00:00 8.6 16 Oeste 32 Sudoeste 0.8 -- -- 87
2019-04-06 02:00:00 8.3 14 Sudoeste 22 Sudoeste 0 -- -- 78
2019-04-06 01:00:00 7.6 2 Oeste 8 Oeste 0 -- -- 81
2019-04-06 00:00:00 7.6 5 Sur 21 Sur 0 -- -- 83
2019-04-05 23:00:00 7.9 10 Sur 18 Sur 0 -- -- 82
2019-04-05 22:00:00 7.6 9 Sur 22 Oeste 1.2 -- -- 89
2019-04-05 21:00:00 8.6 13 Oeste 20 Oeste 1.4 -- -- 85
2019-04-05 20:00:00 9.7 11 Sudoeste 21 Sudoeste 0 -- -- 74
2019-04-05 19:00:00 10.6 6 Sudoeste 16 Sudoeste 0 -- -- 70
2019-04-05 18:00:00 10.9 6 Sur 18 Sur 0.2 -- -- 76
2019-04-05 17:00:00 9.7 9 Sudoeste 33 Noroeste 0.4 -- -- 78
2019-04-05 16:00:00 12.2 15 Sur 31 Sur 0 -- -- 60
2019-04-05 15:00:00 14.2 8 Sur 20 Sudoeste 0 -- -- 52
2019-04-05 14:00:00 14.8 10 Sudoeste 30 Sur 0 -- -- 52
2019-04-05 13:00:00 13.1 14 Sur 28 Noroeste 0 -- -- 55
2019-04-05 12:00:00 12 7 Sudeste 27 Sudeste 0 -- -- 56
2019-04-05 11:00:00 11.9 8 Sur 22 Sur 0 -- -- 55
2019-04-05 10:00:00 11.5 4 Este 19 Sur 0 -- -- 55
2019-04-05 09:00:00 10.9 6 Sur 15 Sur 0 -- -- 51
2019-04-05 08:00:00 10 6 Oeste 15 Sudeste 0 -- -- 51
2019-04-05 07:00:00 10.3 8 Sudeste 12 Sudeste 0 -- -- 49
2019-04-05 06:00:00 10.3 5 Sudoeste 16 Sur 0 -- -- 51
2019-04-05 05:00:00 10.3 5 Sur 21 Sudoeste 0 -- -- 54
2019-04-05 04:00:00 10.1 8 Sudoeste 21 Sur 0 -- -- 55
2019-04-05 03:00:00 10.3 10 Sudoeste 32 Sudoeste 0 -- -- 55
2019-04-05 02:00:00 10.6 12 Sudoeste 35 Oeste 0 -- -- 53
2019-04-05 01:00:00 11.1 17 Sudoeste 45 Sudoeste 0 -- -- 51
2019-04-05 00:00:00 11.8 18 Sudoeste 44 Sudoeste 0 -- -- 48
2019-04-04 23:00:00 12.5 17 Sudoeste 40 Oeste 0 -- -- 42
2019-04-04 22:00:00 10.9 0 Calma 4 Oeste 0 -- -- 54
2019-04-04 21:00:00 10 6 Oeste 12 Sudeste 0 -- -- 76
2019-04-04 20:00:00 10.7 7 Sudeste 23 Sudeste 0 -- -- 80
2019-04-04 19:00:00 10.7 6 Sudeste 17 Este 0 -- -- 75
2019-04-04 18:00:00 11.8 10 Este 24 Este 0 -- -- 69
2019-04-04 17:00:00 11.8 8 Este 27 Este 0 -- -- 62
2019-04-04 16:00:00 12.5 12 Este 22 Este 0 -- -- 62
2019-04-04 15:00:00 13.1 9 Oeste 26 Oeste 0 -- -- 47
2019-04-04 14:00:00 11.4 10 Sudoeste 26 Oeste 0 -- -- 56
2019-04-04 13:00:00 9.7 17 Oeste 36 Sudoeste 0 -- -- 59
2019-04-04 12:00:00 9.1 17 Oeste 38 Oeste 0 -- -- 67
2019-04-04 11:00:00 6.5 14 Sudoeste 34 Oeste 0 -- -- 79
2019-04-04 10:00:00 5.8 20 Sudoeste 41 Sudoeste 0 -- -- 80
2019-04-04 09:00:00 4.8 27 Oeste 43 Sudoeste 0 -- -- 82
2019-04-04 08:00:00 3.6 24 Sudoeste 49 Sudoeste 0 -- -- 86
2019-04-04 07:00:00 3.1 28 Sudoeste 42 Sudoeste 1.2 -- -- 91
2019-04-04 06:00:00 2.8 17 Sudoeste 45 Oeste 1.4 -- -- 92
2019-04-04 05:00:00 2.6 26 Sudoeste 58 Oeste 1.6 -- -- 90
2019-04-04 04:00:00 4.2 33 Oeste 48 Oeste 0 -- -- 85
2019-04-04 03:00:00 4.1 26 Oeste 46 Oeste 0 -- -- 86
2019-04-04 02:00:00 3.4 25 Sudoeste 46 Oeste 0.4 -- -- 89
2019-04-04 01:00:00 4.2 32 Oeste 55 Oeste 0.2 -- -- 86
2019-04-04 00:00:00 3.7 28 Sudoeste 43 Oeste 1 -- -- 89
2019-04-03 23:00:00 3.7 25 Oeste 46 Oeste 1.8 -- -- 90
2019-04-03 22:00:00 4 27 Oeste 62 Oeste 0.4 -- -- 83
2019-04-03 21:00:00 4.4 33 Oeste 64 Oeste 0.4 -- -- 83
2019-04-03 20:00:00 5.5 28 Oeste 58 Oeste 0.6 -- -- 82
2019-04-03 19:00:00 7.1 25 Oeste 46 Oeste 0.4 -- -- 80
2019-04-03 18:00:00 7.1 18 Oeste 39 Sudoeste 0.8 -- -- 85
2019-04-03 17:00:00 6.3 25 Oeste 46 Oeste 0.4 -- -- 82
2019-04-03 16:00:00 6 29 Oeste 58 Oeste 0.4 -- -- 80
2019-04-03 15:00:00 7 27 Oeste 64 Oeste 0 -- -- 77
2019-04-03 14:00:00 7.9 33 Oeste 49 Noroeste 0 -- -- 76
2019-04-03 13:00:00 7.5 24 Oeste 42 Oeste 0.2 -- -- 83
2019-04-03 12:00:00 6.2 23 Oeste 53 Oeste 1.2 -- -- 87
2019-04-03 11:00:00 7.3 24 Oeste 41 Oeste 0.2 -- -- 79
2019-04-03 10:00:00 6.6 24 Oeste 43 Sudoeste 0 -- -- 85
2019-04-03 09:00:00 6.4 24 Oeste 36 Oeste 0.6 -- -- 90
2019-04-03 08:00:00 6.9 22 Oeste 34 Oeste 0.2 -- -- 87
2019-04-03 07:00:00 7.3 17 Oeste 37 Oeste 0.6 -- -- 88
2019-04-03 06:00:00 7.4 23 Oeste 51 Oeste 0.4 -- -- 88
2019-04-03 05:00:00 8 28 Oeste 46 Oeste 0 -- -- 84
2019-04-03 04:00:00 8.5 21 Oeste 35 Sudoeste 0 -- -- 83
2019-04-03 03:00:00 8.2 22 Sudoeste 39 Oeste 0 -- -- 85
2019-04-03 02:00:00 8 24 Oeste 40 Oeste 0.2 -- -- 89
2019-04-03 01:00:00 8.7 15 Oeste 38 Noroeste 0.2 -- -- 88
2019-04-03 00:00:00 8.6 17 Oeste 35 Oeste 0.2 -- -- 90
2019-04-02 23:00:00 9.3 17 Noroeste 27 Oeste 0.4 -- -- 91
2019-04-02 22:00:00 9.8 12 Oeste 28 Oeste 0.8 -- -- 91
2019-04-02 21:00:00 10.3 12 Oeste 25 Noroeste 0.4 -- -- 90
2019-04-02 20:00:00 11.3 17 Noroeste 28 Noroeste 0 -- -- 86
2019-04-02 19:00:00 11.8 17 Noroeste 34 Noroeste 0 -- -- 79
2019-04-02 18:00:00 12.1 13 Noroeste 27 Oeste 0 -- -- 79
2019-04-02 17:00:00 13 14 Noroeste 34 Oeste 0 -- -- 75
2019-04-02 16:00:00 12.6 21 Noroeste 42 Noroeste 0 -- -- 79
2019-04-02 15:00:00 13.7 16 Noroeste 35 Oeste 0 -- -- 79
2019-04-02 14:00:00 12.5 19 Noroeste 35 Oeste 0 -- -- 79
2019-04-02 13:00:00 13.1 13 Noroeste 32 Noroeste 0 -- -- 81
2019-04-02 12:00:00 14.1 11 Oeste 21 Oeste 0 -- -- 73
2019-04-02 11:00:00 12.8 10 Oeste 24 Sudoeste 0 -- -- 77
2019-04-02 10:00:00 11.9 17 Oeste 23 Oeste 0 -- -- 77
2019-04-02 09:00:00 11.6 12 Oeste 17 Sudoeste 0 -- -- 75
2019-04-02 08:00:00 10.9 11 Oeste 17 Oeste 0 -- -- 79
2019-04-02 07:00:00 11.1 11 Sudoeste 18 Sudoeste 0 -- -- 82
2019-04-02 06:00:00 11.2 12 Sudoeste 14 Sudoeste 0 -- -- 82
2019-04-02 05:00:00 11.3 10 Sudoeste 15 Sudoeste 0 -- -- 84
2019-04-02 04:00:00 11.6 9 Sudoeste 14 Oeste 0 -- -- 84
2019-04-02 03:00:00 11.7 7 Oeste 11 Oeste 0 -- -- 83
2019-04-02 02:00:00 11.7 6 Oeste 9 Oeste 0 -- -- 81
2019-04-02 01:00:00 11.7 6 Oeste 10 Oeste 0 -- -- 79
2019-04-02 00:00:00 12 2 Oeste 3 Oeste 0 -- -- 78
2019-04-01 23:00:00 12 3 Sudeste 9 Sudeste 0 -- -- 80
2019-04-01 22:00:00 11.9 5 Sudeste 6 Este 0 -- -- 80
2019-04-01 21:00:00 12.4 4 Este 7 Sur 0 -- -- 75
2019-04-01 20:00:00 12.5 0 Calma 10 Este 0 -- -- 77
2019-04-01 19:00:00 13.3 5 Sudeste 8 Sudeste 0 -- -- 81
2019-04-01 18:00:00 13.8 4 Sudeste 17 Este 0 -- -- 75
2019-04-01 17:00:00 14.3 12 Sudeste 18 Sudeste 0 -- -- 73
2019-04-01 16:00:00 14.2 10 Sudeste 15 Este 0 -- -- 80
2019-04-01 15:00:00 13.9 8 Este 15 Este 0 -- -- 79
2019-04-01 14:00:00 14.1 9 Este 19 Sudeste 0 -- -- 78
2019-04-01 13:00:00 14 13 Este 19 Este 0.2 -- -- 83
2019-04-01 12:00:00 12.4 4 Sudeste 9 Sudoeste 0 -- -- 82
2019-04-01 11:00:00 10.8 3 Sur 6 Este 0 -- -- 90
2019-04-01 10:00:00 10.4 2 Sur 9 Sudeste 0.4 -- -- 90
2019-04-01 09:00:00 10 6 Sur 10 Sur 0.6 -- -- 89
2019-04-01 08:00:00 10.2 0 Calma 9 Sudoeste 0.6 -- -- 85
2019-04-01 07:00:00 10.3 8 Sudoeste 26 Sudoeste 0.8 -- -- 83
2019-04-01 06:00:00 10.4 12 Sudoeste 22 Sudoeste 0.6 -- -- 82
2019-04-01 05:00:00 10.4 13 Sudoeste 28 Oeste 1 -- -- 83
2019-04-01 04:00:00 11.4 12 Sur 34 Sur 0.2 -- -- 76
2019-04-01 03:00:00 13.2 13 Sur 30 Sur 0 -- -- 60
2019-04-01 02:00:00 12.7 5 Este 13 Sudoeste 0 -- -- 64
2019-04-01 01:00:00 12.5 0 Calma 6 Sudeste 0 -- -- 68
2019-04-01 00:00:00 11.9 2 Sur 4 Este 0 -- -- 81
2019-03-31 23:00:00 11.9 4 Este 8 Sudeste 0 -- -- 80
2019-03-31 22:00:00 12 4 Sudeste 6 Sudeste 0 -- -- 81
2019-03-31 21:00:00 12.6 5 Sudeste 7 Sudeste 0 -- -- 75
2019-03-31 20:00:00 15.4 3 Este 10 Este 0 -- -- 68
2019-03-31 19:00:00 16.8 9 Este 16 Este 0 -- -- 53
2019-03-31 18:00:00 18.7 9 Este 18 Este 0 -- -- 46
2019-03-31 17:00:00 17.9 9 Este 19 Este 0 -- -- 56
2019-03-31 16:00:00 18.3 9 Este 17 Este 0 -- -- 54
2019-03-31 15:00:00 18.4 9 Este 12 Este 0 -- -- 59
2019-03-31 14:00:00 19.2 5 Este 10 Este 0 -- -- 46
2019-03-31 13:00:00 18.5 4 Este 17 Este 0 -- -- 49
2019-03-31 12:00:00 16.9 8 Este 14 Este 0 -- -- 60
2019-03-31 11:00:00 16.4 2 Nordeste 9 Sudeste 0 -- -- 53
2019-03-31 10:00:00 14.4 4 Este 12 Sudeste 0 -- -- 64
2019-03-31 09:00:00 11.6 4 Este 6 Este 0 -- -- 75
2019-03-31 08:00:00 11 2 Nordeste 4 Sudoeste 0 -- -- 70
2019-03-31 07:00:00 10.8 0 Calma 10 Nordeste 0 -- -- 81
2019-03-31 06:00:00 11.5 4 Noroeste 10 Norte 0 -- -- 74
2019-03-31 05:00:00 11.6 0 Calma 8 Norte 0 -- -- 66
2019-03-31 03:00:00 12.6 4 Este 9 Sur 0 -- -- 54
2019-03-31 01:00:00 12.4 0 Calma 4 Nordeste 0 -- -- 54
2019-03-31 00:00:00 13 0 Calma 6 Sudoeste 0 -- -- 52
2019-03-30 23:00:00 13.9 3 Oeste 6 Oeste 0 -- -- 49
2019-03-30 22:00:00 13.8 0 Calma 10 Sur 0 -- -- 49
2019-03-30 21:00:00 14.1 8 Sudeste 16 Sudeste 0 -- -- 54
2019-03-30 20:00:00 15 8 Sudeste 10 Sudeste 0 -- -- 45
2019-03-30 19:00:00 17.1 8 Sudeste 13 Sudeste 0 -- -- 42
2019-03-30 18:00:00 18.4 9 Sudeste 19 Este 0 -- -- 42
2019-03-30 17:00:00 19.1 11 Sudeste 24 Sudeste 0 -- -- 45
2019-03-30 16:00:00 19.4 16 Este 23 Este 0 -- -- 46
2019-03-30 15:00:00 21.2 9 Sudeste 22 Este 0 -- -- 42
2019-03-30 14:00:00 21.1 5 Nordeste 16 Sur 0 -- -- 39
2019-03-30 13:00:00 21.1 7 Sudeste 24 Sudoeste 0 -- -- 34
2019-03-30 12:00:00 19.6 8 Sudoeste 26 Sudoeste 0 -- -- 41
2019-03-30 11:00:00 17.9 14 Sur 37 Sudoeste 0 -- -- 40
2019-03-30 10:00:00 16.5 8 Este 38 Sudeste 0 -- -- 41
2019-03-30 09:00:00 15 15 Sudeste 43 Sudoeste 0 -- -- 42
2019-03-30 08:00:00 13.2 21 Oeste 51 Sur 0 -- -- 44
2019-03-30 07:00:00 13 20 Oeste 45 Sudoeste 0 -- -- 43
2019-03-30 06:00:00 13.7 19 Sudoeste 50 Sudoeste 0 -- -- 41
2019-03-30 05:00:00 14.6 17 Sudoeste 45 Sudoeste 0 -- -- 37
2019-03-30 04:00:00 15.5 17 Sudoeste 49 Sur 0 -- -- 35
2019-03-30 03:00:00 15.5 19 Sudoeste 50 Sudoeste 0 -- -- 37
2019-03-30 02:00:00 15.7 19 Sudoeste 51 Sur 0 -- -- 40
2019-03-30 01:00:00 16.2 19 Sudoeste 59 Sur 0 -- -- 40
2019-03-30 00:00:00 16.7 21 Sudoeste 54 Sudoeste 0 -- -- 40
2019-03-29 23:00:00 16.9 15 Sudoeste 47 Sur 0 -- -- 38
2019-03-29 22:00:00 17 15 Sur 34 Sur 0 -- -- 37
2019-03-29 21:00:00 17 12 Sur 30 Sur 0 -- -- 35
2019-03-29 20:00:00 15.5 8 Sudeste 14 Sur 0 -- -- 43
2019-03-29 19:00:00 15.5 0 Calma 10 Sudeste 0 -- -- 68
2019-03-29 18:00:00 16.8 5 Sudeste 9 Este 0 -- -- 61
2019-03-29 17:00:00 16.5 5 Este 12 Este 0 -- -- 66
2019-03-29 16:00:00 15.9 5 Este 14 Este 0 -- -- 65
2019-03-29 15:00:00 15.5 6 Este 14 Este 0 -- -- 68
2019-03-29 14:00:00 15 9 Este 20 Este 0 -- -- 69
2019-03-29 13:00:00 15.6 15 Este 23 Este 0 -- -- 65
2019-03-29 12:00:00 15 12 Este 20 Este 0 -- -- 70
2019-03-29 11:00:00 13.9 8 Este 17 Este 0 -- -- 67
2019-03-29 10:00:00 13.3 8 Este 13 Este 0 -- -- 60
2019-03-29 09:00:00 12.2 2 Nordeste 13 Sudeste 0 -- -- 61
2019-03-29 08:00:00 9.9 0 Calma 4 Este 0 -- -- 73
2019-03-29 07:00:00 8.9 2 Sur 6 Sur 0 -- -- 69
2019-03-29 06:00:00 8.8 2 Sudoeste 6 Sudoeste 0 -- -- 66
2019-03-29 05:00:00 8.7 6 Sudoeste 11 Sudoeste 0 -- -- 67
2019-03-29 04:00:00 8.7 6 Sudoeste 11 Sudoeste 0 -- -- 69
2019-03-29 03:00:00 8.4 7 Sudoeste 15 Sudoeste 0 -- -- 72
2019-03-29 02:00:00 8.4 5 Sudoeste 13 Sudoeste 0 -- -- 71
2019-03-29 01:00:00 8.2 3 Oeste 16 Sudoeste 0 -- -- 75
2019-03-29 00:00:00 8.6 14 Sudoeste 18 Sudoeste 0 -- -- 80
2019-03-28 23:00:00 8.4 12 Sudoeste 17 Sudoeste 0 -- -- 87
2019-03-28 22:00:00 8.7 8 Sudoeste 11 Sudoeste 0 -- -- 87
2019-03-28 21:00:00 9 5 Sudoeste 8 Sudoeste 0 -- -- 86
2019-03-28 20:00:00 9.2 4 Oeste 11 Oeste 0 -- -- 83
2019-03-28 19:00:00 11.3 5 Oeste 9 Noroeste 0 -- -- 77
2019-03-28 18:00:00 13.1 3 Norte 9 Nordeste 0 -- -- 67
2019-03-28 17:00:00 13.4 3 Norte 10 Noroeste 0 -- -- 68
2019-03-28 16:00:00 13.6 4 Norte 10 Norte 0 -- -- 68
2019-03-28 15:00:00 13.7 4 Norte 13 Norte 0 -- -- 68
2019-03-28 14:00:00 13.6 4 Norte 13 Norte 0 -- -- 70
2019-03-28 13:00:00 13 6 Noroeste 14 Noroeste 0 -- -- 72
2019-03-28 12:00:00 13.1 4 Noroeste 16 Noroeste 0 -- -- 76
2019-03-28 11:00:00 12.5 4 Noroeste 11 Norte 0 -- -- 75
2019-03-28 10:00:00 11.3 6 Oeste 13 Noroeste 0 -- -- 77
2019-03-28 09:00:00 10 6 Oeste 12 Oeste 0 -- -- 83
2019-03-28 08:00:00 8.7 6 Oeste 12 Oeste 0 -- -- 86
2019-03-28 07:00:00 8.2 8 Oeste 13 Oeste 0 -- -- 88
2019-03-28 06:00:00 8.4 8 Oeste 17 Oeste 0 -- -- 87
2019-03-28 05:00:00 8.6 11 Oeste 16 Oeste 0 -- -- 86
2019-03-28 04:00:00 8.8 11 Oeste 17 Oeste 0 -- -- 86
2019-03-28 03:00:00 8.9 9 Oeste 19 Oeste 0 -- -- 83
2019-03-28 02:00:00 9.2 10 Oeste 18 Oeste 0 -- -- 83
2019-03-28 01:00:00 8.8 12 Oeste 20 Sudoeste 0 -- -- 84
2019-03-28 00:00:00 9.1 13 Sudoeste 21 Sudoeste 0 -- -- 84
2019-03-27 23:00:00 8.6 10 Oeste 14 Sudoeste 0 -- -- 83
2019-03-27 22:00:00 9.2 9 Oeste 14 Noroeste 0 -- -- 81
2019-03-27 21:00:00 9.1 6 Oeste 13 Oeste 0 -- -- 78
2019-03-27 20:00:00 9.2 5 Noroeste 14 Norte 0 -- -- 77
2019-03-27 19:00:00 10.2 3 Noroeste 15 Norte 0 -- -- 76
2019-03-27 18:00:00 11.6 4 Noroeste 14 Norte 0 -- -- 70
2019-03-27 17:00:00 12.3 4 Noroeste 15 Noroeste 0 -- -- 68
2019-03-27 16:00:00 12.6 4 Noroeste 13 Noroeste 0 -- -- 64
2019-03-27 15:00:00 12.4 5 Noroeste 12 Noroeste 0 -- -- 67
2019-03-27 14:00:00 12 5 Noroeste 11 Noroeste 0 -- -- 66
2019-03-27 13:00:00 11.6 5 Norte 10 Noroeste 0 -- -- 61
2019-03-27 12:00:00 11 4 Norte 12 Norte 0 -- -- 62
2019-03-27 11:00:00 11.1 4 Norte 10 Nordeste 0 -- -- 64
2019-03-27 10:00:00 10.3 4 Noroeste 8 Noroeste 0 -- -- 66
2019-03-27 09:00:00 9.6 0 Calma 6 Oeste 0 -- -- 73
2019-03-27 08:00:00 7.5 3 Oeste 5 Oeste 0 -- -- 75
2019-03-27 07:00:00 6.9 3 Oeste 7 Sudoeste 0 -- -- 76
2019-03-27 06:00:00 7.2 3 Oeste 7 Oeste 0 -- -- 73
2019-03-27 05:00:00 7.9 0 Calma 6 Sudoeste 0 -- -- 69
2019-03-27 04:00:00 8.1 4 Oeste 7 Nordeste 0 -- -- 68
2019-03-27 03:00:00 8.2 3 Nordeste 16 Este 0 -- -- 69
2019-03-27 02:00:00 8.4 8 Este 28 Este 0 -- -- 71
2019-03-27 01:00:00 8.9 9 Este 22 Este 0 -- -- 73
2019-03-27 00:00:00 9.1 8 Sudeste 17 Este 0 -- -- 75